Time;durP1;ratioP1;P1;durP2;ratioP2;P2;SDS_P1;SDS_P2;PMS_P1;PMS_P2;Temp;Humidity;BMP_temperature;BMP_pressure;BME280_temperature;BME280_humidity;BME280_pressure;Samples;Min_cycle;Max_cycle;Signal;HPM_P1;HPM_P2
2021/08/10 00:01:23;;;;;;;9.43;6.53;;;15.60;96.40;;;;;;4952020;29;20051;-52
2021/08/10 00:03:49;;;;;;;12.50;7.05;;;15.50;96.40;;;;;;4952857;28;20043;-51
2021/08/10 00:06:15;;;;;;;10.35;6.78;;;15.50;96.50;;;;;;4935721;29;20453;-56
2021/08/10 00:08:40;;;;;;;8.98;6.55;;;15.50;96.60;;;;;;4948794;29;20109;-52
2021/08/10 00:11:06;;;;;;;10.52;6.82;;;15.50;96.60;;;;;;4944849;29;20147;-51
2021/08/10 00:13:32;;;;;;;9.57;6.72;;;15.50;96.60;;;;;;4936877;29;20095;-51
2021/08/10 00:15:57;;;;;;;11.07;6.95;;;15.50;96.70;;;;;;4952397;29;20050;-53
2021/08/10 00:18:23;;;;;;;12.05;7.72;;;15.50;96.60;;;;;;4953130;29;20130;-54
2021/08/10 00:20:50;;;;;;;9.98;6.45;;;15.50;96.70;;;;;;4965397;28;20057;-50
2021/08/10 00:23:17;;;;;;;11.85;7.07;;;15.50;96.70;;;;;;4952444;28;20043;-53
2021/08/10 00:25:42;;;;;;;13.05;7.50;;;15.50;96.70;;;;;;4952441;29;20062;-52
2021/08/10 00:28:08;;;;;;;10.48;7.03;;;15.50;96.70;;;;;;4937442;29;20428;-53
2021/08/10 00:30:34;;;;;;;10.48;6.90;;;15.50;96.70;;;;;;4943633;29;20419;-53
2021/08/10 00:33:00;;;;;;;13.45;8.02;;;15.40;96.70;;;;;;4933553;29;20123;-55
2021/08/10 00:35:26;;;;;;;11.95;6.97;;;15.50;96.70;;;;;;4952680;29;20106;-56
2021/08/10 00:37:52;;;;;;;13.13;7.72;;;15.40;96.70;;;;;;4952457;29;20049;-56
2021/08/10 00:40:20;;;;;;;12.05;7.68;;;15.40;96.70;;;;;;4952528;29;20423;-55
2021/08/10 00:42:46;;;;;;;12.10;7.32;;;15.40;96.80;;;;;;4951264;28;20433;-55
2021/08/10 00:45:11;;;;;;;11.45;7.28;;;15.40;96.80;;;;;;4946351;29;20107;-55
2021/08/10 00:47:37;;;;;;;11.25;7.72;;;15.40;96.80;;;;;;4952755;29;20054;-56
2021/08/10 00:50:04;;;;;;;12.02;7.25;;;15.40;96.90;;;;;;4937271;29;20051;-56
2021/08/10 00:52:30;;;;;;;13.73;7.43;;;15.30;97.10;;;;;;4933904;29;20138;-56
2021/08/10 00:54:56;;;;;;;11.95;7.25;;;15.30;96.90;;;;;;4944103;28;20134;-56
2021/08/10 00:57:21;;;;;;;10.98;7.13;;;15.30;96.90;;;;;;4945393;29;20476;-56
2021/08/10 00:59:47;;;;;;;11.95;7.18;;;15.30;97.00;;;;;;4951469;29;20074;-52
2021/08/10 01:02:12;;;;;;;10.93;7.03;;;15.30;96.90;;;;;;4950880;29;20043;-56
2021/08/10 01:04:38;;;;;;;14.07;7.25;;;15.30;96.90;;;;;;4944231;29;20051;-52
2021/08/10 01:07:12;;;;;;;11.23;7.18;;;15.30;96.90;;;;;;4952486;29;20086;-54
2021/08/10 01:09:52;;;;;;;12.73;7.30;;;15.30;96.90;;;;;;4952453;29;20055;-56
2021/08/10 01:12:36;;;;;;;11.95;6.88;;;15.30;96.90;;;;;;4951813;29;20047;-56
2021/08/10 01:15:13;;;;;;;10.55;7.03;;;15.30;96.90;;;;;;4951981;29;20185;-55
2021/08/10 01:18:01;;;;;;;13.55;6.97;;;15.30;96.90;;;;;;4954886;28;20110;-55
2021/08/10 01:20:43;;;;;;;10.80;6.53;;;15.30;96.90;;;;;;4955083;29;20096;-56
2021/08/10 01:23:12;;;;;;;9.68;6.47;;;15.30;96.80;;;;;;4954603;29;20051;-55
2021/08/10 01:26:02;;;;;;;10.18;6.93;;;15.30;96.80;;;;;;4956129;29;20051;-54
2021/08/10 01:28:52;;;;;;;10.35;6.75;;;15.30;96.80;;;;;;4954285;29;20083;-53
2021/08/10 01:31:37;;;;;;;9.88;6.38;;;15.20;96.80;;;;;;4954121;29;20404;-56
2021/08/10 01:34:11;;;;;;;11.50;6.50;;;15.30;96.80;;;;;;4959190;28;20074;-52
2021/08/10 01:36:40;;;;;;;12.45;7.40;;;15.20;96.80;;;;;;4958101;28;20043;-51
2021/08/10 01:39:06;;;;;;;12.32;7.25;;;15.20;96.80;;;;;;4942214;28;20075;-53
2021/08/10 01:41:33;;;;;;;12.52;7.50;;;15.20;96.90;;;;;;4947399;28;20055;-52
2021/08/10 01:44:01;;;;;;;12.82;7.28;;;15.20;96.80;;;;;;4955868;28;20047;-54
2021/08/10 01:46:28;;;;;;;11.98;6.80;;;15.20;96.80;;;;;;4955410;29;20035;-53
2021/08/10 01:48:55;;;;;;;12.38;7.18;;;15.20;96.80;;;;;;4952702;29;20493;-56
2021/08/10 01:51:26;;;;;;;11.57;6.80;;;15.20;96.80;;;;;;4947273;29;20054;-56
2021/08/10 01:53:54;;;;;;;12.93;7.13;;;15.20;96.80;;;;;;4955977;29;20047;-56
2021/08/10 01:56:20;;;;;;;12.25;6.75;;;15.20;96.80;;;;;;4954686;29;20050;-56
2021/08/10 01:58:48;;;;;;;13.52;7.18;;;15.20;96.80;;;;;;4955517;29;20043;-53
2021/08/10 02:01:15;;;;;;;10.30;6.90;;;15.20;96.80;;;;;;4954631;29;20386;-53
2021/08/10 02:03:43;;;;;;;11.10;7.00;;;15.20;96.80;;;;;;4949827;28;20134;-52
2021/08/10 02:06:11;;;;;;;13.07;7.15;;;15.20;96.80;;;;;;4952167;29;20114;-50
2021/08/10 02:08:36;;;;;;;11.80;7.18;;;15.20;96.80;;;;;;4955526;29;20042;-55
2021/08/10 02:11:03;;;;;;;13.68;7.07;;;15.20;96.80;;;;;;4955267;29;20043;-55
2021/08/10 02:13:28;;;;;;;12.98;7.68;;;15.20;96.80;;;;;;4954700;28;20586;-56
2021/08/10 02:15:54;;;;;;;10.00;6.90;;;15.20;96.80;;;;;;4955349;29;20091;-52
2021/08/10 02:18:20;;;;;;;12.02;7.30;;;15.20;96.80;;;;;;4955644;29;20098;-56
2021/08/10 02:20:51;;;;;;;12.88;7.25;;;15.20;96.80;;;;;;4953442;29;20054;-56
2021/08/10 02:23:19;;;;;;;12.50;7.40;;;15.20;96.90;;;;;;4954938;28;20137;-55
2021/08/10 02:25:47;;;;;;;10.65;7.45;;;15.10;96.80;;;;;;4955084;29;20126;-54
2021/08/10 02:28:15;;;;;;;11.48;7.60;;;15.20;96.90;;;;;;4953257;28;20103;-54
2021/08/10 02:30:46;;;;;;;11.55;7.47;;;15.20;96.90;;;;;;4954699;29;20079;-56
2021/08/10 02:33:12;;;;;;;12.20;8.10;;;15.10;96.90;;;;;;4954054;29;20163;-53
2021/08/10 02:35:40;;;;;;;12.23;7.70;;;15.20;97.00;;;;;;4955209;29;20051;-56
2021/08/10 02:38:08;;;;;;;12.43;7.70;;;15.20;97.00;;;;;;4954565;29;20114;-54
2021/08/10 02:40:37;;;;;;;13.30;8.10;;;15.20;97.00;;;;;;4949223;29;20043;-55
2021/08/10 02:43:03;;;;;;;12.75;8.05;;;15.20;97.10;;;;;;4947792;28;20039;-56
2021/08/10 02:45:33;;;;;;;10.60;7.90;;;15.10;97.00;;;;;;4954866;29;20075;-52
2021/08/10 02:48:01;;;;;;;12.95;7.88;;;15.10;97.00;;;;;;4954291;29;20043;-55
2021/08/10 02:50:28;;;;;;;12.20;8.00;;;15.20;97.00;;;;;;4947304;29;20067;-56
2021/08/10 02:52:54;;;;;;;13.05;7.55;;;15.20;97.10;;;;;;4953375;28;20046;-56
2021/08/10 02:55:21;;;;;;;11.75;7.80;;;15.10;97.00;;;;;;4952259;29;20207;-56
2021/08/10 02:58:06;;;;;;;16.27;7.57;;;15.10;97.10;;;;;;4942134;29;20047;-53
2021/08/10 03:00:45;;;;;;;11.90;7.20;;;15.10;97.10;;;;;;4950165;29;20126;-56
2021/08/10 03:03:15;;;;;;;15.40;8.25;;;15.10;97.10;;;;;;4951277;29;20047;-56
2021/08/10 03:05:43;;;;;;;12.77;7.93;;;15.10;97.10;;;;;;4953186;29;20492;-56
2021/08/10 03:08:20;;;;;;;13.68;7.82;;;15.20;97.20;;;;;;4952964;29;20397;-54
2021/08/10 03:10:47;;;;;;;11.75;7.57;;;15.20;97.20;;;;;;4954548;28;20043;-56
2021/08/10 03:13:15;;;;;;;14.48;7.35;;;15.20;97.20;;;;;;4952452;28;20051;-56
2021/08/10 03:15:42;;;;;;;10.32;7.53;;;15.20;97.30;;;;;;4954442;28;20046;-56
2021/08/10 03:18:12;;;;;;;11.60;7.70;;;15.20;97.30;;;;;;4947357;29;20095;-54
2021/08/10 03:20:42;;;;;;;15.07;7.82;;;15.20;97.30;;;;;;4953264;29;20058;-56
2021/08/10 03:23:13;;;;;;;11.68;7.22;;;15.20;97.20;;;;;;4953098;28;20051;-55
2021/08/10 03:25:40;;;;;;;10.55;7.00;;;15.20;97.20;;;;;;4954454;28;20098;-55
2021/08/10 03:28:06;;;;;;;11.18;7.63;;;15.20;97.10;;;;;;4952777;29;20046;-56
2021/08/10 03:30:32;;;;;;;14.93;7.65;;;15.20;97.10;;;;;;4952125;29;20047;-56
2021/08/10 03:33:01;;;;;;;11.45;6.82;;;15.20;97.00;;;;;;4950183;28;20129;-56
2021/08/10 03:35:28;;;;;;;11.95;7.32;;;15.20;97.00;;;;;;4951608;29;20078;-56
2021/08/10 03:37:55;;;;;;;10.70;6.60;;;15.20;97.00;;;;;;4949461;29;20525;-56
2021/08/10 03:40:21;;;;;;;15.27;7.68;;;15.20;97.00;;;;;;4951858;28;20130;-55
2021/08/10 03:42:48;;;;;;;16.77;7.20;;;15.20;96.90;;;;;;4952060;28;20043;-50
2021/08/10 03:45:15;;;;;;;14.82;7.40;;;15.20;96.90;;;;;;4951440;29;20169;-56
2021/08/10 03:47:42;;;;;;;13.02;7.28;;;15.20;96.90;;;;;;4951814;29;20047;-56
2021/08/10 03:50:10;;;;;;;13.23;7.10;;;15.20;96.90;;;;;;4950647;29;20043;-56
2021/08/10 03:52:35;;;;;;;10.35;6.80;;;15.20;97.00;;;;;;4947995;29;20051;-56
2021/08/10 03:55:02;;;;;;;14.73;7.50;;;15.20;97.00;;;;;;4948764;29;20519;-56
2021/08/10 03:57:34;;;;;;;11.93;7.47;;;15.30;97.00;;;;;;4943727;29;20504;-56
2021/08/10 04:00:01;;;;;;;11.70;7.30;;;15.30;97.10;;;;;;4950704;28;20047;-56
2021/08/10 04:02:33;;;;;;;12.07;7.43;;;15.20;97.00;;;;;;4952232;29;20047;-56
2021/08/10 04:04:59;;;;;;;11.77;7.50;;;15.20;97.20;;;;;;4950817;29;20043;-56
2021/08/10 04:07:26;;;;;;;14.48;8.00;;;15.20;97.00;;;;;;4945814;29;20497;-56
2021/08/10 04:09:53;;;;;;;12.27;7.88;;;15.20;97.10;;;;;;4935850;29;20039;-56
2021/08/10 04:12:20;;;;;;;15.10;8.25;;;15.20;97.10;;;;;;4952846;29;20448;-56
2021/08/10 04:14:46;;;;;;;15.80;8.07;;;15.20;97.30;;;;;;4952211;28;20097;-55
2021/08/10 04:17:12;;;;;;;14.15;8.23;;;15.20;97.20;;;;;;4949149;28;20051;-55
2021/08/10 04:19:47;;;;;;;10.80;7.47;;;15.20;97.10;;;;;;4943424;29;20047;-56
2021/08/10 04:22:14;;;;;;;12.05;7.43;;;15.20;97.40;;;;;;4946662;29;20546;-56
2021/08/10 04:24:40;;;;;;;12.90;7.55;;;15.20;97.20;;;;;;4952819;29;20166;-56
2021/08/10 04:27:06;;;;;;;12.50;7.85;;;15.20;97.20;;;;;;4944256;29;20063;-53
2021/08/10 04:29:33;;;;;;;16.20;7.47;;;15.20;97.10;;;;;;4948851;28;20135;-56
2021/08/10 04:31:58;;;;;;;14.02;7.70;;;15.20;97.10;;;;;;4951852;29;20138;-55
2021/08/10 04:34:24;;;;;;;14.77;7.72;;;15.20;97.10;;;;;;4951825;28;20126;-53
2021/08/10 04:36:49;;;;;;;11.73;7.80;;;15.20;97.10;;;;;;4959039;28;20038;-56
2021/08/10 04:39:15;;;;;;;15.27;8.15;;;15.10;97.10;;;;;;4950598;28;20121;-56
2021/08/10 04:41:41;;;;;;;14.23;7.57;;;15.20;97.10;;;;;;4947653;29;20047;-56
2021/08/10 04:44:07;;;;;;;16.08;8.13;;;15.20;97.40;;;;;;4933636;29;20130;-56
2021/08/10 04:46:33;;;;;;;11.15;7.30;;;15.20;97.10;;;;;;4948377;29;20046;-56
2021/08/10 04:48:58;;;;;;;11.55;7.43;;;15.20;97.20;;;;;;4952426;29;20043;-56
2021/08/10 04:51:25;;;;;;;14.93;7.60;;;15.20;97.20;;;;;;4939285;28;20059;-52
2021/08/10 04:53:50;;;;;;;10.43;8.00;;;15.20;97.20;;;;;;4955861;28;20455;-56
2021/08/10 04:56:16;;;;;;;11.55;7.88;;;15.30;97.20;;;;;;4954536;29;20044;-56
2021/08/10 04:58:42;;;;;;;11.43;7.28;;;15.30;97.30;;;;;;4952926;29;20039;-56
2021/08/10 05:01:07;;;;;;;14.27;7.30;;;15.30;97.20;;;;;;4953939;29;20134;-56
2021/08/10 05:03:33;;;;;;;11.38;7.43;;;15.30;97.20;;;;;;4955857;28;20078;-55
2021/08/10 05:05:59;;;;;;;12.43;7.32;;;15.30;97.20;;;;;;4944150;28;20046;-55
2021/08/10 05:08:25;;;;;;;17.70;8.45;;;15.30;97.20;;;;;;4955828;28;20043;-53
2021/08/10 05:10:58;;;;;;;12.05;7.50;;;15.30;97.20;;;;;;4953634;28;20114;-54
2021/08/10 05:13:24;;;;;;;12.63;7.67;;;15.30;97.20;;;;;;4951412;29;20130;-55
2021/08/10 05:15:49;;;;;;;14.00;7.47;;;15.30;97.20;;;;;;4947526;29;20126;-56
2021/08/10 05:18:15;;;;;;;13.30;7.57;;;15.30;97.20;;;;;;4950104;29;20403;-56
2021/08/10 05:20:41;;;;;;;10.80;7.35;;;15.30;97.20;;;;;;4955398;29;20055;-56
2021/08/10 05:23:07;;;;;;;16.98;8.27;;;15.20;97.20;;;;;;4953031;28;20047;-53
2021/08/10 05:25:32;;;;;;;13.00;8.00;;;15.20;97.30;;;;;;4951792;29;20435;-56
2021/08/10 05:27:58;;;;;;;11.82;7.93;;;15.20;97.30;;;;;;4936785;29;20059;-56
2021/08/10 05:30:24;;;;;;;12.13;7.82;;;15.20;97.30;;;;;;4947236;29;20551;-56
2021/08/10 05:32:49;;;;;;;13.02;7.55;;;15.20;97.40;;;;;;4954939;29;20043;-56
2021/08/10 05:35:15;;;;;;;13.88;8.25;;;15.20;97.40;;;;;;4955823;29;20098;-56
2021/08/10 05:37:41;;;;;;;11.63;7.65;;;15.20;97.40;;;;;;4955082;29;20054;-56
2021/08/10 05:40:07;;;;;;;14.52;8.23;;;15.10;97.40;;;;;;4955991;29;20355;-55
2021/08/10 05:42:33;;;;;;;17.42;7.95;;;15.10;97.50;;;;;;4955242;29;20377;-56
2021/08/10 05:44:58;;;;;;;14.13;7.85;;;15.10;97.50;;;;;;4954867;29;20090;-57
2021/08/10 05:47:24;;;;;;;12.77;8.07;;;15.10;97.50;;;;;;4955373;29;20558;-57
2021/08/10 05:49:50;;;;;;;14.00;8.48;;;15.10;97.50;;;;;;4955607;28;20043;-52
2021/08/10 05:52:15;;;;;;;14.95;8.45;;;15.10;97.50;;;;;;4954929;28;20082;-53
2021/08/10 05:54:41;;;;;;;17.30;8.20;;;15.00;97.60;;;;;;4944571;28;20054;-50
2021/08/10 05:57:07;;;;;;;14.15;8.07;;;15.00;97.60;;;;;;4947737;29;20039;-53
2021/08/10 05:59:32;;;;;;;16.85;8.00;;;15.00;97.60;;;;;;4949089;29;20097;-53
2021/08/10 06:01:58;;;;;;;16.95;8.38;;;15.00;97.60;;;;;;4954888;28;20047;-54
2021/08/10 06:04:24;;;;;;;14.57;8.63;;;15.00;97.70;;;;;;4959765;28;20047;-53
2021/08/10 06:06:50;;;;;;;13.98;8.38;;;15.00;97.80;;;;;;4951579;29;20107;-52
2021/08/10 06:09:15;;;;;;;12.45;8.15;;;15.00;97.80;;;;;;4960121;28;20051;-52
2021/08/10 06:11:41;;;;;;;12.48;8.90;;;14.90;97.80;;;;;;4949754;28;20535;-49
2021/08/10 06:14:07;;;;;;;13.70;8.75;;;14.90;97.80;;;;;;4946894;28;20098;-53
2021/08/10 06:16:33;;;;;;;16.08;9.15;;;14.90;97.80;;;;;;4936511;29;20043;-53
2021/08/10 06:18:59;;;;;;;15.57;9.77;;;14.90;97.80;;;;;;4963385;28;20043;-53
2021/08/10 06:21:25;;;;;;;13.43;9.02;;;14.90;97.80;;;;;;4960956;28;20061;-52
2021/08/10 06:23:51;;;;;;;15.43;9.40;;;14.90;97.80;;;;;;4951594;28;20432;-53
2021/08/10 06:26:17;;;;;;;16.48;9.60;;;14.90;97.80;;;;;;4939824;29;20044;-56
2021/08/10 06:28:43;;;;;;;11.32;7.90;;;14.90;97.80;;;;;;4943161;28;20067;-52
2021/08/10 06:31:09;;;;;;;11.82;8.32;;;14.90;97.80;;;;;;4937030;29;20039;-53
2021/08/10 06:33:37;;;;;;;13.38;7.63;;;14.90;97.80;;;;;;4939903;29;20423;-54
2021/08/10 06:36:03;;;;;;;12.85;8.90;;;14.90;97.70;;;;;;4939393;29;20134;-55
2021/08/10 06:38:29;;;;;;;17.38;11.10;;;14.90;97.70;;;;;;4938055;29;20052;-54
2021/08/10 06:40:54;;;;;;;15.85;12.27;;;14.90;97.70;;;;;;4940346;29;20047;-54
2021/08/10 06:43:20;;;;;;;20.40;14.65;;;14.90;97.80;;;;;;4941256;29;20052;-51
2021/08/10 06:45:46;;;;;;;23.00;17.10;;;15.00;97.80;;;;;;4936910;29;20576;-52
2021/08/10 06:48:11;;;;;;;21.65;16.40;;;15.10;98.00;;;;;;4938431;29;20043;-53
2021/08/10 06:50:37;;;;;;;24.67;17.33;;;15.20;98.00;;;;;;4941405;29;20043;-55
2021/08/10 06:53:02;;;;;;;22.10;17.88;;;15.20;98.00;;;;;;4944254;29;20487;-51
2021/08/10 06:55:28;;;;;;;31.13;18.40;;;15.30;98.00;;;;;;4936932;29;20098;-49
2021/08/10 06:57:54;;;;;;;28.83;18.73;;;15.30;98.00;;;;;;4937894;29;20424;-53
2021/08/10 07:00:19;;;;;;;27.48;19.90;;;15.30;98.00;;;;;;4939448;29;20126;-52
2021/08/10 07:02:45;;;;;;;29.02;20.00;;;15.40;98.00;;;;;;4939811;28;20044;-51
2021/08/10 07:05:10;;;;;;;24.65;19.13;;;15.40;98.00;;;;;;4942288;28;20135;-52
2021/08/10 07:07:36;;;;;;;29.58;19.67;;;15.40;98.00;;;;;;4938951;29;20039;-51
2021/08/10 07:10:03;;;;;;;28.13;20.10;;;15.40;98.00;;;;;;4944653;29;20126;-52
2021/08/10 07:12:29;;;;;;;27.17;19.63;;;15.50;98.10;;;;;;4937855;29;20464;-53
2021/08/10 07:14:54;;;;;;;26.60;20.33;;;15.50;98.10;;;;;;4937408;28;20036;-53
2021/08/10 07:17:20;;;;;;;26.02;18.52;;;15.60;98.10;;;;;;4940296;29;20048;-52
2021/08/10 07:19:46;;;;;;;29.98;19.30;;;15.70;98.10;;;;;;4936320;29;20122;-53
2021/08/10 07:22:11;;;;;;;27.60;17.60;;;15.70;98.00;;;;;;4936169;29;20527;-53
2021/08/10 07:24:37;;;;;;;30.67;20.40;;;15.80;98.00;;;;;;4919635;29;20397;-53
2021/08/10 07:27:03;;;;;;;29.40;19.23;;;15.90;98.00;;;;;;4937434;29;20063;-51
2021/08/10 07:29:30;;;;;;;33.30;18.27;;;16.00;98.00;;;;;;4935642;29;20051;-50
2021/08/10 07:31:56;;;;;;;29.67;17.90;;;16.20;98.00;;;;;;4940325;29;20412;-53
2021/08/10 07:34:22;;;;;;;22.35;16.52;;;16.30;97.90;;;;;;4938482;29;20044;-53
2021/08/10 07:36:47;;;;;;;29.42;16.95;;;16.40;97.80;;;;;;4938527;29;20043;-52
2021/08/10 07:39:13;;;;;;;21.73;15.40;;;16.50;97.70;;;;;;4935750;29;20058;-52
2021/08/10 07:41:39;;;;;;;24.63;15.20;;;16.50;97.60;;;;;;4936017;29;20479;-50
2021/08/10 07:44:05;;;;;;;23.20;15.45;;;16.50;97.30;;;;;;4936944;29;20050;-53
2021/08/10 07:46:30;;;;;;;26.45;16.52;;;16.50;97.20;;;;;;4945896;29;20043;-54
2021/08/10 07:48:56;;;;;;;19.00;14.25;;;16.50;97.20;;;;;;4939882;29;20039;-50
2021/08/10 07:51:21;;;;;;;21.92;14.57;;;16.50;97.10;;;;;;4934993;29;20289;-53
2021/08/10 07:53:47;;;;;;;20.27;13.90;;;16.50;97.10;;;;;;4937910;29;20047;-52
2021/08/10 07:56:13;;;;;;;23.00;14.82;;;16.50;97.10;;;;;;4944746;29;20047;-51
2021/08/10 07:58:39;;;;;;;21.45;14.93;;;16.50;97.10;;;;;;4947637;29;20043;-54
2021/08/10 08:01:05;;;;;;;25.17;15.13;;;16.50;97.00;;;;;;4944660;29;20210;-52
2021/08/10 08:03:32;;;;;;;24.33;14.20;;;16.50;97.00;;;;;;4944218;29;20559;-52
2021/08/10 08:05:57;;;;;;;21.13;13.10;;;16.60;97.10;;;;;;4945139;28;20054;-54
2021/08/10 08:08:25;;;;;;;26.45;13.50;;;16.60;97.10;;;;;;4948981;29;20039;-53
2021/08/10 08:10:54;;;;;;;24.08;13.65;;;16.60;97.10;;;;;;4950719;29;20503;-55
2021/08/10 08:13:21;;;;;;;22.27;12.85;;;16.70;97.10;;;;;;4950893;28;20070;-50
2021/08/10 08:15:47;;;;;;;24.83;13.57;;;16.70;96.90;;;;;;4952349;29;20043;-53
2021/08/10 08:18:12;;;;;;;23.67;12.63;;;16.80;96.90;;;;;;4942464;28;20052;-57
2021/08/10 08:20:38;;;;;;;19.70;12.82;;;16.90;96.80;;;;;;4938320;29;20051;-53
2021/08/10 08:23:04;;;;;;;21.77;11.85;;;16.90;96.50;;;;;;4933679;29;20531;-51
2021/08/10 08:25:29;;;;;;;17.25;10.73;;;17.00;96.20;;;;;;4947925;28;20047;-53
2021/08/10 08:27:55;;;;;;;18.02;10.73;;;17.00;96.00;;;;;;4937204;29;20039;-54
2021/08/10 08:30:21;;;;;;;17.77;10.88;;;17.10;95.90;;;;;;4932999;29;20389;-55
2021/08/10 08:32:47;;;;;;;16.42;10.68;;;17.10;95.80;;;;;;4945523;29;20040;-54
2021/08/10 08:35:13;;;;;;;16.80;10.30;;;17.20;95.90;;;;;;4941672;29;20524;-51
2021/08/10 08:37:39;;;;;;;14.57;9.80;;;17.30;95.70;;;;;;4950129;29;20044;-54
2021/08/10 08:40:06;;;;;;;17.17;9.82;;;17.40;95.60;;;;;;4933182;29;20044;-53
2021/08/10 08:42:32;;;;;;;15.57;9.88;;;17.40;95.30;;;;;;4945542;29;20397;-53
2021/08/10 08:44:57;;;;;;;15.85;9.05;;;17.40;95.30;;;;;;4948263;29;20046;-54
2021/08/10 08:47:23;;;;;;;20.50;9.23;;;17.40;95.10;;;;;;4943787;29;20519;-50
2021/08/10 08:49:51;;;;;;;13.45;8.90;;;17.50;94.90;;;;;;4948160;29;20427;-53
2021/08/10 08:52:18;;;;;;;16.35;10.00;;;17.50;94.90;;;;;;4945633;29;20040;-55
2021/08/10 08:54:44;;;;;;;14.85;9.70;;;17.60;94.70;;;;;;4951751;29;20066;-53
2021/08/10 08:57:10;;;;;;;13.90;9.32;;;17.70;94.00;;;;;;4950590;29;20035;-53
2021/08/10 08:59:40;;;;;;;16.40;9.20;;;17.80;94.00;;;;;;4947770;29;20093;-53
2021/08/10 09:02:12;;;;;;;14.68;9.75;;;17.90;93.90;;;;;;4942747;28;20504;-54
2021/08/10 09:04:38;;;;;;;15.57;8.82;;;18.00;93.90;;;;;;4952009;28;20086;-52
2021/08/10 09:07:04;;;;;;;14.45;8.32;;;18.20;93.60;;;;;;4947075;28;20436;-54
2021/08/10 09:09:30;;;;;;;15.35;8.70;;;18.20;93.30;;;;;;4957623;28;20204;-50
2021/08/10 09:11:58;;;;;;;17.23;8.48;;;18.30;93.20;;;;;;4953900;28;20067;-54
2021/08/10 09:14:25;;;;;;;14.82;7.55;;;18.30;93.10;;;;;;4964694;28;20046;-52
2021/08/10 09:17:19;;;;;;;14.85;7.38;;;18.30;92.60;;;;;;4953485;28;20043;-50
2021/08/10 09:19:49;;;;;;;15.32;7.32;;;18.50;92.60;;;;;;4950591;29;20116;-51
2021/08/10 09:22:20;;;;;;;13.48;7.93;;;18.50;92.10;;;;;;4951143;29;20137;-53
2021/08/10 09:25:01;;;;;;;15.40;7.20;;;18.60;92.20;;;;;;4951408;28;20067;-54
2021/08/10 09:27:38;;;;;;;14.85;8.25;;;18.70;92.50;;;;;;4942352;29;20044;-54
2021/08/10 09:30:25;;;;;;;16.00;8.02;;;18.90;92.40;;;;;;4943494;29;20040;-53
2021/08/10 09:32:51;;;;;;;12.93;7.13;;;19.10;92.10;;;;;;4962228;28;20047;-53
2021/08/10 09:35:18;;;;;;;13.27;7.00;;;19.20;91.50;;;;;;4951000;29;20091;-53
2021/08/10 09:38:05;;;;;;;13.43;7.50;;;19.30;91.30;;;;;;4954970;28;20134;-52
2021/08/10 09:40:35;;;;;;;14.35;6.95;;;19.50;90.40;;;;;;4956828;28;20043;-55
2021/08/10 09:43:31;;;;;;;14.35;7.47;;;19.60;90.50;;;;;;4942437;28;20097;-50
2021/08/10 09:46:20;;;;;;;10.38;5.97;;;19.60;90.10;;;;;;4950108;29;20138;-53
2021/08/10 09:48:48;;;;;;;15.70;6.57;;;19.70;89.80;;;;;;4952365;29;20471;-53
2021/08/10 09:51:35;;;;;;;15.68;6.90;;;19.80;89.60;;;;;;4954229;29;20071;-51
2021/08/10 09:54:03;;;;;;;13.57;6.85;;;19.70;89.30;;;;;;4954148;28;20101;-51
2021/08/10 09:56:37;;;;;;;14.90;7.40;;;19.60;88.70;;;;;;4954487;29;20047;-55
2021/08/10 09:59:03;;;;;;;11.30;6.70;;;19.50;88.50;;;;;;4954085;29;20038;-51
2021/08/10 10:01:34;;;;;;;14.40;7.45;;;19.40;89.30;;;;;;4953231;29;20038;-53
2021/08/10 10:04:20;;;;;;;12.40;6.73;;;19.30;89.10;;;;;;4953755;28;20047;-52
2021/08/10 10:06:50;;;;;;;13.48;6.85;;;19.30;89.70;;;;;;4954009;29;20079;-55
2021/08/10 10:09:16;;;;;;;18.17;7.45;;;19.50;89.10;;;;;;4950960;29;20113;-55
2021/08/10 10:11:44;;;;;;;13.60;6.57;;;19.60;88.90;;;;;;4954185;29;20083;-53
2021/08/10 10:14:12;;;;;;;12.70;6.68;;;19.60;87.30;;;;;;4948425;29;20043;-53
2021/08/10 10:16:42;;;;;;;12.07;6.32;;;19.70;87.70;;;;;;4953985;29;20043;-52
2021/08/10 10:19:11;;;;;;;11.82;6.55;;;19.90;87.60;;;;;;4949748;29;20459;-52
2021/08/10 10:21:40;;;;;;;17.48;7.28;;;19.90;87.20;;;;;;4949489;29;20043;-53
2021/08/10 10:24:07;;;;;;;12.65;7.28;;;19.90;87.90;;;;;;4951556;28;20047;-53
2021/08/10 10:26:41;;;;;;;12.77;6.43;;;20.10;87.90;;;;;;4954326;29;20050;-56
2021/08/10 10:29:10;;;;;;;12.52;6.47;;;20.20;87.30;;;;;;4925314;29;20047;-51
2021/08/10 10:31:35;;;;;;;12.40;7.15;;;20.20;86.40;;;;;;4940843;28;20047;-52
2021/08/10 10:34:03;;;;;;;11.23;6.28;;;20.20;86.30;;;;;;4948626;29;20054;-53
2021/08/10 10:36:29;;;;;;;11.52;6.40;;;20.30;85.80;;;;;;4953817;29;20094;-52
2021/08/10 10:38:56;;;;;;;14.25;6.10;;;20.30;85.30;;;;;;4942425;29;20407;-53
2021/08/10 10:41:28;;;;;;;15.80;7.00;;;20.20;85.30;;;;;;4950823;29;20039;-55
2021/08/10 10:43:54;;;;;;;13.98;6.40;;;20.30;85.60;;;;;;4949566;29;20107;-55
2021/08/10 10:46:26;;;;;;;14.00;6.97;;;20.20;84.70;;;;;;4944489;29;20044;-53
2021/08/10 10:48:52;;;;;;;10.25;6.80;;;20.20;84.70;;;;;;4949011;28;20038;-53
2021/08/10 10:51:40;;;;;;;14.65;6.20;;;20.20;85.00;;;;;;4937418;28;20075;-52
2021/08/10 10:54:26;;;;;;;11.57;6.40;;;20.20;85.70;;;;;;4938099;29;20048;-54
2021/08/10 10:56:54;;;;;;;12.15;6.55;;;20.20;86.50;;;;;;4937795;29;20513;-53
2021/08/10 10:59:34;;;;;;;14.00;7.18;;;20.20;85.60;;;;;;4943910;29;20412;-54
2021/08/10 11:02:22;;;;;;;13.52;6.45;;;20.10;84.50;;;;;;4938608;29;20063;-53
2021/08/10 11:05:10;;;;;;;10.73;6.00;;;20.10;83.70;;;;;;4940443;28;20043;-50
2021/08/10 11:07:39;;;;;;;11.10;6.00;;;20.20;83.70;;;;;;4944796;29;20035;-51
2021/08/10 11:10:11;;;;;;;12.38;5.13;;;20.20;83.60;;;;;;4947233;29;20094;-54
2021/08/10 11:12:44;;;;;;;11.35;5.72;;;20.00;84.20;;;;;;4942125;29;20425;-50
2021/08/10 11:15:34;;;;;;;7.55;5.05;;;19.90;83.90;;;;;;4948878;29;20941;-50
2021/08/10 11:18:20;;;;;;;11.48;5.30;;;19.80;84.60;;;;;;4936859;29;20050;-55
2021/08/10 11:20:47;;;;;;;12.02;6.88;;;19.70;85.20;;;;;;4948183;29;20046;-50
2021/08/10 11:23:27;;;;;;;11.43;7.22;;;19.60;86.20;;;;;;4949381;29;20117;-54
2021/08/10 11:25:59;;;;;;;15.35;8.18;;;19.50;87.30;;;;;;4948462;28;20061;-54
2021/08/10 11:28:32;;;;;;;12.38;8.18;;;19.30;89.20;;;;;;4951038;29;20075;-53
2021/08/10 11:30:59;;;;;;;12.90;8.50;;;19.10;90.10;;;;;;4949238;28;20051;-54
2021/08/10 11:33:32;;;;;;;15.75;8.70;;;18.90;90.60;;;;;;4949702;29;20047;-51
2021/08/10 11:36:10;;;;;;;13.38;9.05;;;18.80;91.00;;;;;;4941814;29;20122;-53
2021/08/10 11:38:36;;;;;;;13.38;9.10;;;18.70;91.60;;;;;;4939452;29;20047;-52
2021/08/10 11:41:04;;;;;;;15.00;8.65;;;18.50;91.80;;;;;;4940862;29;20137;-54
2021/08/10 11:43:45;;;;;;;14.73;8.55;;;18.50;91.90;;;;;;4946492;28;20194;-54
2021/08/10 11:46:17;;;;;;;16.05;9.45;;;18.40;92.20;;;;;;4948471;29;20069;-50
2021/08/10 11:48:47;;;;;;;13.32;8.77;;;18.40;92.40;;;;;;4953249;29;20113;-52
2021/08/10 11:51:24;;;;;;;16.92;9.43;;;18.30;92.50;;;;;;4940205;29;20130;-52
2021/08/10 11:53:55;;;;;;;15.00;9.27;;;18.30;92.70;;;;;;4949969;28;20058;-54
2021/08/10 11:56:39;;;;;;;13.32;9.20;;;18.30;92.80;;;;;;4940769;29;20043;-51
2021/08/10 11:59:08;;;;;;;18.60;9.93;;;18.20;93.20;;;;;;4944371;29;20043;-55
2021/08/10 12:01:36;;;;;;;15.25;8.80;;;18.10;93.30;;;;;;4946184;28;20443;-52
2021/08/10 12:04:15;;;;;;;12.10;8.93;;;18.10;93.50;;;;;;4951982;28;20134;-54
2021/08/10 12:06:43;;;;;;;19.15;9.57;;;18.00;93.70;;;;;;4945980;29;20415;-53
2021/08/10 12:09:11;;;;;;;15.20;9.65;;;17.90;93.70;;;;;;4937131;29;20079;-52
2021/08/10 12:11:38;;;;;;;16.80;9.63;;;17.90;94.00;;;;;;4936615;29;20471;-51
2021/08/10 12:14:12;;;;;;;13.70;8.95;;;17.90;94.20;;;;;;4937757;29;20121;-52
2021/08/10 12:16:39;;;;;;;15.02;9.57;;;17.90;94.50;;;;;;4940031;29;20048;-55
2021/08/10 12:19:04;;;;;;;17.27;9.98;;;17.90;94.50;;;;;;4937566;29;20469;-52
2021/08/10 12:21:43;;;;;;;15.43;8.35;;;17.90;94.70;;;;;;4941395;29;20126;-53
2021/08/10 12:24:25;;;;;;;13.75;8.15;;;17.90;94.80;;;;;;4935238;29;20054;-56
2021/08/10 12:26:51;;;;;;;17.60;8.82;;;17.90;94.80;;;;;;4933599;29;20138;-53
2021/08/10 12:29:16;;;;;;;27.42;9.63;;;17.80;94.70;;;;;;4931230;29;20098;-54
2021/08/10 12:31:45;;;;;;;17.63;7.30;;;17.70;95.10;;;;;;4938907;29;20448;-51
2021/08/10 12:34:10;;;;;;;12.00;5.82;;;17.50;95.10;;;;;;4944695;29;20138;-54
2021/08/10 12:36:50;;;;;;;12.75;6.13;;;17.30;95.00;;;;;;4946130;29;20110;-54
2021/08/10 12:39:16;;;;;;;10.02;5.82;;;17.10;95.10;;;;;;4944240;29;20036;-52
2021/08/10 12:41:42;;;;;;;10.50;6.18;;;17.00;95.30;;;;;;4951285;29;20041;-53
2021/08/10 12:44:09;;;;;;;11.77;7.45;;;17.00;95.40;;;;;;4949416;29;20079;-50